CheckWX is a tool to help pilots better visualize weather data.  It is not intended as a substitute for an official pre-flight weather briefing.

19:17:17 UTC

KHOU TAF
William P Hobby Airport
Houston, Texas, USA
KHOU 161720Z 1618/1718 VRB04KT P6SM OVC008 FM161900 25003KT P6SM BKN025 FM170400 16006KT P6SM SCT029 BKN070 FM170600 17005KT 4SM BR SCT011 BKN070 FM170800 17005KT 1/2SM FG BKN004 FM171500 17006KT 3SM BR SCT003 OVC023

Feb-16@
18:00 UTC

Feb-16 @ 18:00 UTC

Feb-16@
19:00 UTC

Feb-16 @ 19:00 UTC

KHOU 161720Z 1618/1718 VRB04KT P6SM OVC008

Expired

Wind
  • Variable at 4 KTS
Cloud Levels
  • Overcast at 800' AGL

Feb-16@
19:00 UTC

Feb-16 @ 19:00 UTC

Feb-17@
04:00 UTC

Feb-17 @ 04:00 UTC

FM161900 25003KT P6SM BKN025

From

From Standard forecast or significant change

Wind
  • 250° at 3 KTS
Cloud Levels
  • Broken at 2,500' AGL

Feb-17@
04:00 UTC

Feb-17 @ 04:00 UTC

Feb-17@
06:00 UTC

Feb-17 @ 06:00 UTC

FM170400 16006KT P6SM SCT029 BKN070

From

From Standard forecast or significant change

Wind
  • 160° at 6 KTS
Cloud Levels
  • Scattered at 2,900' AGL
  • Broken at 7,000' AGL

Feb-17@
06:00 UTC

Feb-17 @ 06:00 UTC

Feb-17@
08:00 UTC

Feb-17 @ 08:00 UTC

FM170600 17005KT 4SM BR SCT011 BKN070

From

From Standard forecast or significant change

Wind
  • 170° at 5 KTS
Conditions
Mist
Cloud Levels
  • Scattered at 1,100' AGL
  • Broken at 7,000' AGL

Feb-17@
08:00 UTC

Feb-17 @ 08:00 UTC

Feb-17@
15:00 UTC

Feb-17 @ 15:00 UTC

FM170800 17005KT 1/2SM FG BKN004

From

From Standard forecast or significant change

Wind
  • 170° at 5 KTS
Conditions
Fog
Cloud Levels
  • Broken at 400' AGL

Feb-17@
15:00 UTC

Feb-17 @ 15:00 UTC

Feb-17@
18:00 UTC

Feb-17 @ 18:00 UTC

FM171500 17006KT 3SM BR SCT003 OVC023

From

From Standard forecast or significant change

Wind
  • 170° at 6 KTS
Conditions
Mist
Cloud Levels
  • Scattered at 300' AGL
  • Overcast at 2,300' AGL